Asian Infinity — 3EVP3 — position and weather

sailwx.info

Track history (hours):
 
Tides and Currents Weather Stations Pressure Air Temp Water Temp Dewpoint Dewpoint Depression Visibility Wind Speed Wind Dir Waves Ship Positions

Asian Infinity

Last reported at 2015-Jan-31 05:29 UTC. Time now 2015-Feb-01 13:20 UTC.
Position N 34°01' E 130°50'.

Length 104 m; draft 6.3 m.

Type: Ship (hazmat cat A). MMSI: 351868000.

Date/timePositionNaut miles runAvg speedWind from/ knotsBaromVisibWave heightAir tempDewpointWater temp
2015-Jan-31 05:29N 34°01' E 130°50'31 9.7
2015-Jan-31 02:21N 33°58' E 130°14'435 8.9
2015-Jan-29 01:31N 37°39' E 122°31'1310.9
2015-Jan-29 00:22N 37°46' E 122°18'1210.8
2015-Jan-28 23:14N 37°48' E 122°03'2010.4
2015-Jan-28 21:18N 37°52' E 121°38'1210.0
2015-Jan-28 20:04N 37°53' E 121°23'510.1
2015-Jan-28 19:33N 37°54' E 121°16'3210.3
2015-Jan-28 16:25N 38°01' E 120°36'8 9.6
2015-Jan-28 15:33N 38°01' E 120°26'9 9.4
2015-Jan-28 14:33N 37°55' E 120°17'10 9.7
2015-Jan-28 13:33N 37°48' E 120°08'10 9.9
2015-Jan-28 12:33N 37°41' E 119°59'11 8.3
2015-Jan-28 11:13N 37°30' E 119°54'6 8.6
2015-Jan-28 10:34N 37°25' E 119°57'0 0.4
2015-Jan-28 09:27N 37°25' E 119°57'0 0.0
2015-Jan-28 08:33N 37°25' E 119°57'0 0.0
2015-Jan-28 04:15N 37°25' E 119°57'0 0.0
2015-Jan-28 03:33N 37°25' E 119°57'0 0.0
2015-Jan-28 02:27N 37°25' E 119°57'0 0.2
2015-Jan-28 01:32N 37°25' E 119°57'2 1.7
2015-Jan-28 00:21N 37°26' E 119°55'0 0.1
2015-Jan-27 23:31N 37°26' E 119°55'3 3.3
2015-Jan-27 22:34N 37°29' E 119°54'4 2.8
2015-Jan-27 21:14N 37°32' E 119°51'0 0.0
2015-Jan-27 20:32N 37°32' E 119°51'0 0.0
2015-Jan-27 18:32N 37°32' E 119°51'0 0.0
2015-Jan-27 17:26N 37°32' E 119°51'0 0.0
2015-Jan-27 16:32N 37°32' E 119°51'8 7.5
2015-Jan-27 15:32N 37°39' E 119°48'11410.4
2015-Jan-27 04:33N 38°56' E 117°60'1010.2
2015-Jan-27 03:33N 38°58' E 117°47'2 1.5
2015-Jan-27 02:29N 38°59' E 117°45'0 0.0
2015-Jan-27 01:23N 38°59' E 117°45'0 0.0
2015-Jan-27 00:23N 38°59' E 117°45'0 0.0
2015-Jan-26 23:17N 38°59' E 117°45'0 0.0
2015-Jan-26 22:29N 38°59' E 117°45'0 0.0
2015-Jan-26 21:29N 38°59' E 117°45'0 0.0
2015-Jan-26 20:17N 38°59' E 117°45'0 0.0
2015-Jan-26 19:29N 38°59' E 117°45'0 0.0
2015-Jan-26 18:29N 38°59' E 117°45'0 0.0
2015-Jan-26 17:29N 38°59' E 117°45'0 0.0
2015-Jan-26 16:29N 38°59' E 117°45'0 0.0
2015-Jan-26 15:23N 38°59' E 117°45'0 0.0
2015-Jan-26 14:29N 38°59' E 117°45'2 1.9
2015-Jan-26 13:33N 38°58' E 117°47'9 9.2
2015-Jan-26 12:33N 38°57' E 117°59'10 9.6
2015-Jan-26 11:32N 38°55' E 118°11'149 9.1
2015-Jan-25 19:09N 38°32' E 121°20'711.4
2015-Jan-25 18:33N 38°32' E 121°29'1010.0
2015-Jan-25 17:33N 38°35' E 121°41'1111.0
2015-Jan-25 16:33N 38°46' E 121°44'1110.7
2015-Jan-25 15:33N 38°56' E 121°46'5 4.8
2015-Jan-25 14:33N 39°01' E 121°45'0 0.0
2015-Jan-25 13:33N 39°01' E 121°45'0 0.0
2015-Jan-25 12:33N 39°01' E 121°45'0 0.0
2015-Jan-25 11:33N 39°01' E 121°45'0 0.0
2015-Jan-25 10:27N 39°01' E 121°45'0 0.0
2015-Jan-25 08:24N 39°01' E 121°45'0 0.0
2015-Jan-25 07:21N 39°01' E 121°45'0 0.0
2015-Jan-25 06:27N 39°01' E 121°45'0 0.0
2015-Jan-25 05:15N 39°01' E 121°45'0 0.0
2015-Jan-25 04:33N 39°01' E 121°45'0 0.0
2015-Jan-25 00:33N 39°01' E 121°45'0 0.0
2015-Jan-24 20:21N 39°01' E 121°45'0 0.0
2015-Jan-24 19:27N 39°01' E 121°45'0 0.0
2015-Jan-24 08:31N 39°01' E 121°45'6 6.8
2015-Jan-24 07:33N 38°55' E 121°47'9 8.6
2015-Jan-24 06:33N 38°51' E 121°57'1 1.3
2015-Jan-24 05:31N 38°52' E 121°59'0 0.0
2015-Jan-24 04:31N 38°52' E 121°59'0 0.0
2015-Jan-24 03:31N 38°52' E 121°59'0 0.0
2015-Jan-24 02:28N 38°52' E 121°59'0 0.0
2015-Jan-24 01:31N 38°52' E 121°59'5 4.9
2015-Jan-24 00:28N 38°48' E 122°03'1210.0
2015-Jan-23 23:15N 38°37' E 122°10'7 9.9
2015-Jan-23 22:33N 38°30' E 122°14'446 9.3
2015-Jan-21 22:36N 31°05' E 122°32'110.0
2015-Jan-21 22:32N 31°05' E 122°31'1111.3
2015-Jan-21 21:32N 31°06' E 122°18'1515.0
2015-Jan-21 20:33N 31°14' E 122°04'1414.2
2015-Jan-21 19:34N 31°17' E 121°48'1212.0
2015-Jan-21 18:33N 31°23' E 121°35'4 4.4
2015-Jan-21 17:33N 31°21' E 121°31'0 0.0
2015-Jan-21 16:33N 31°21' E 121°31'0 0.0
2015-Jan-21 15:30N 31°21' E 121°31'0 0.0
2015-Jan-21 14:27N 31°21' E 121°31'0 0.0
2015-Jan-21 13:33N 31°21' E 121°31'0 0.0
2015-Jan-21 12:33N 31°21' E 121°31'0 0.0
2015-Jan-21 11:27N 31°21' E 121°31'0 0.0
2015-Jan-21 10:33N 31°21' E 121°31'0 0.0
2015-Jan-21 09:21N 31°21' E 121°31'0 0.0
2015-Jan-21 08:33N 31°21' E 121°31'0 0.0
2015-Jan-21 07:33N 31°21' E 121°31'0 0.0
2015-Jan-21 06:27N 31°21' E 121°31'0 0.0
2015-Jan-21 05:30N 31°21' E 121°31'  
Track history (hours):
 
Tides and Currents Weather Stations Pressure Air Temp Water Temp Dewpoint Dewpoint Depression Visibility Wind Speed Wind Dir Waves Ship Positions

Asian Infinity

Last reported at 2015-Jan-31 05:29 UTC. Time now 2015-Feb-01 13:20 UTC.
Position N 34°01' E 130°50'.

Length 104 m; draft 6.3 m.

Type: Ship (hazmat cat A). MMSI: 351868000.

Date/timePositionNaut miles runAvg speedWind from/ knotsBaromVisibWave heightAir tempDewpointWater temp
2015-Jan-31 05:29N 34°01' E 130°50'31 9.7
2015-Jan-31 02:21N 33°58' E 130°14'435 8.9
2015-Jan-29 01:31N 37°39' E 122°31'1310.9
2015-Jan-29 00:22N 37°46' E 122°18'1210.8
2015-Jan-28 23:14N 37°48' E 122°03'2010.4
2015-Jan-28 21:18N 37°52' E 121°38'1210.0
2015-Jan-28 20:04N 37°53' E 121°23'510.1
2015-Jan-28 19:33N 37°54' E 121°16'3210.3
2015-Jan-28 16:25N 38°01' E 120°36'8 9.6
2015-Jan-28 15:33N 38°01' E 120°26'9 9.4
2015-Jan-28 14:33N 37°55' E 120°17'10 9.7
2015-Jan-28 13:33N 37°48' E 120°08'10 9.9
2015-Jan-28 12:33N 37°41' E 119°59'11 8.3
2015-Jan-28 11:13N 37°30' E 119°54'6 8.6
2015-Jan-28 10:34N 37°25' E 119°57'0 0.4
2015-Jan-28 09:27N 37°25' E 119°57'0 0.0
2015-Jan-28 08:33N 37°25' E 119°57'0 0.0
2015-Jan-28 04:15N 37°25' E 119°57'0 0.0
2015-Jan-28 03:33N 37°25' E 119°57'0 0.0
2015-Jan-28 02:27N 37°25' E 119°57'0 0.2
2015-Jan-28 01:32N 37°25' E 119°57'2 1.7
2015-Jan-28 00:21N 37°26' E 119°55'0 0.1
2015-Jan-27 23:31N 37°26' E 119°55'3 3.3
2015-Jan-27 22:34N 37°29' E 119°54'4 2.8
2015-Jan-27 21:14N 37°32' E 119°51'0 0.0
2015-Jan-27 20:32N 37°32' E 119°51'0 0.0
2015-Jan-27 18:32N 37°32' E 119°51'0 0.0
2015-Jan-27 17:26N 37°32' E 119°51'0 0.0
2015-Jan-27 16:32N 37°32' E 119°51'8 7.5
2015-Jan-27 15:32N 37°39' E 119°48'11410.4
2015-Jan-27 04:33N 38°56' E 117°60'1010.2
2015-Jan-27 03:33N 38°58' E 117°47'2 1.5
2015-Jan-27 02:29N 38°59' E 117°45'0 0.0
2015-Jan-27 01:23N 38°59' E 117°45'0 0.0
2015-Jan-27 00:23N 38°59' E 117°45'0 0.0
2015-Jan-26 23:17N 38°59' E 117°45'0 0.0
2015-Jan-26 22:29N 38°59' E 117°45'0 0.0
2015-Jan-26 21:29N 38°59' E 117°45'0 0.0
2015-Jan-26 20:17N 38°59' E 117°45'0 0.0
2015-Jan-26 19:29N 38°59' E 117°45'0 0.0
2015-Jan-26 18:29N 38°59' E 117°45'0 0.0
2015-Jan-26 17:29N 38°59' E 117°45'0 0.0
2015-Jan-26 16:29N 38°59' E 117°45'0 0.0
2015-Jan-26 15:23N 38°59' E 117°45'0 0.0
2015-Jan-26 14:29N 38°59' E 117°45'2 1.9
2015-Jan-26 13:33N 38°58' E 117°47'9 9.2
2015-Jan-26 12:33N 38°57' E 117°59'10 9.6
2015-Jan-26 11:32N 38°55' E 118°11'149 9.1
2015-Jan-25 19:09N 38°32' E 121°20'711.4
2015-Jan-25 18:33N 38°32' E 121°29'1010.0
2015-Jan-25 17:33N 38°35' E 121°41'1111.0
2015-Jan-25 16:33N 38°46' E 121°44'1110.7
2015-Jan-25 15:33N 38°56' E 121°46'5 4.8
2015-Jan-25 14:33N 39°01' E 121°45'0 0.0
2015-Jan-25 13:33N 39°01' E 121°45'0 0.0
2015-Jan-25 12:33N 39°01' E 121°45'0 0.0
2015-Jan-25 11:33N 39°01' E 121°45'0 0.0
2015-Jan-25 10:27N 39°01' E 121°45'0 0.0
2015-Jan-25 08:24N 39°01' E 121°45'0 0.0
2015-Jan-25 07:21N 39°01' E 121°45'0 0.0
2015-Jan-25 06:27N 39°01' E 121°45'0 0.0
2015-Jan-25 05:15N 39°01' E 121°45'0 0.0
2015-Jan-25 04:33N 39°01' E 121°45'0 0.0
2015-Jan-25 00:33N 39°01' E 121°45'0 0.0
2015-Jan-24 20:21N 39°01' E 121°45'0 0.0
2015-Jan-24 19:27N 39°01' E 121°45'0 0.0
2015-Jan-24 08:31N 39°01' E 121°45'6 6.8
2015-Jan-24 07:33N 38°55' E 121°47'9 8.6
2015-Jan-24 06:33N 38°51' E 121°57'1 1.3
2015-Jan-24 05:31N 38°52' E 121°59'0 0.0
2015-Jan-24 04:31N 38°52' E 121°59'0 0.0
2015-Jan-24 03:31N 38°52' E 121°59'0 0.0
2015-Jan-24 02:28N 38°52' E 121°59'0 0.0
2015-Jan-24 01:31N 38°52' E 121°59'5 4.9
2015-Jan-24 00:28N 38°48' E 122°03'1210.0
2015-Jan-23 23:15N 38°37' E 122°10'7 9.9
2015-Jan-23 22:33N 38°30' E 122°14'446 9.3
2015-Jan-21 22:36N 31°05' E 122°32'110.0
2015-Jan-21 22:32N 31°05' E 122°31'1111.3
2015-Jan-21 21:32N 31°06' E 122°18'1515.0
2015-Jan-21 20:33N 31°14' E 122°04'1414.2
2015-Jan-21 19:34N 31°17' E 121°48'1212.0
2015-Jan-21 18:33N 31°23' E 121°35'4 4.4
2015-Jan-21 17:33N 31°21' E 121°31'0 0.0
2015-Jan-21 16:33N 31°21' E 121°31'0 0.0
2015-Jan-21 15:30N 31°21' E 121°31'0 0.0
2015-Jan-21 14:27N 31°21' E 121°31'0 0.0
2015-Jan-21 13:33N 31°21' E 121°31'0 0.0
2015-Jan-21 12:33N 31°21' E 121°31'0 0.0
2015-Jan-21 11:27N 31°21' E 121°31'0 0.0
2015-Jan-21 10:33N 31°21' E 121°31'0 0.0
2015-Jan-21 09:21N 31°21' E 121°31'0 0.0
2015-Jan-21 08:33N 31°21' E 121°31'0 0.0
2015-Jan-21 07:33N 31°21' E 121°31'0 0.0
2015-Jan-21 06:27N 31°21' E 121°31'0 0.0
2015-Jan-21 05:30N 31°21' E 121°31'  

Dump ship's entire track history